Lumb, Argentina
Current Conditions -  °F | °C
As of 6:00 AM on Thursday 23 Oct 2014 (Local Time) from SAZM Reporting Station
Scattered Clouds Scattered Clouds  
Wind Chill: 57°   Ceiling: Unl
Heat Index: 57°   Visibility: 6mi
Dew Point: 46°   Wind: 7mph
Humidity: 67%   Direction: 140°SE
Pressure: 30.09"   Gusts: NA
Location:  38.22°S, 59.32°W
Report Text: SAZM 230900Z 14006KT 9999 SCT030 SCT08014/08 Q1019
Loading
Personal Weather Stations






























Interactive Weather Map
Tropical Storm Tracking
New forecast layout! Learn more

10-Day Weather Forecast

Advertisements
Track Severe Weather on mobile